Portada
METAR-TAF:

METAR-TAF

Aeropuertos :

Aeropuerto de Alicante-Elche

Alicante, España

latitud: 38-17N, longitud: 000-33W, altitud: 43 m

Observación

El informe se hizo hace 30 minutos, a las 19:00 UTC
Viento 2 kt con dirección variable
Temperatura 19°C
Humedad 73%
Presión 1020 hPa
Visibilidad 10 km o más
sin nubes por debajo de 1500 m y sin presencia de cumulonimbus.

METAR: LEAL 201900Z VRB02KT CAVOK 19/14 Q1020 NOSIG

Hora: 21:30 (19:30 UTC)

Pronóstico

El informe se hizo hace 2 horas y 30 minutos, a las 17:00 UTC
Pronóstico válido del 20 a las 18 UTC al 21 a las 18 UTC
Viento 3 kt con dirección variable
Visibilidad 10 km o más
Escasas nubes a una altura de 2000 ft
Temporalmente
del 21 a las 00 UTC al 21 a las 09 UTC
Viento 10 kt del oeste
Evolucionando progresivamente
del 21 a las 10 UTC al 21 a las 12 UTC
Viento 10 kt del este

TAF: LEAL 201700Z 2018/2118 VRB03KT 9999 FEW020 TX30/2112Z TN17/2106Z TEMPO 2100/2109 27010KT BECMG 2110/2112 10010KT

Observaciones y pronósticos meteorológicos de más de 4000 aeropuertos (mensajes METAR y TAF).

Los puntos amarillos y rojos representan las estaciones disponibles.

Ponga el ratón en el punto deseado para ver el nombre de la estación.

Haga clic para ver las observaciones y los pronósticos meteorológicos.

Para cambiar el mapa : haga clic en los botones verdes con una cruz de color negro para hacer un zoom, en el botón verde con un guión para alejar o en las flechas verdes para mapas adyacentes.


METAR-TAF: